createdAt,value
2023-04-19T00:00:12.317Z,13.60
2023-04-19T00:02:42.772Z,13.63
2023-04-19T00:05:12.072Z,13.57
2023-04-19T00:07:38.884Z,13.36
2023-04-19T00:10:07.563Z,13.58
2023-04-19T00:12:34.170Z,13.25
2023-04-19T00:15:01.061Z,13.58
2023-04-19T00:17:27.885Z,13.49
2023-04-19T00:19:54.604Z,13.47
2023-04-19T00:22:21.124Z,13.66
2023-04-19T00:24:47.900Z,13.34
2023-04-19T00:27:19.761Z,13.32
2023-04-19T00:29:46.619Z,13.51
2023-04-19T00:32:13.423Z,13.52
2023-04-19T00:34:39.953Z,13.34
2023-04-19T00:37:06.724Z,13.49
2023-04-19T00:39:33.236Z,13.33
2023-04-19T00:41:59.949Z,13.34
2023-04-19T00:44:26.838Z,13.44
2023-04-19T00:46:54.061Z,13.47
2023-04-19T00:49:23.003Z,13.27
2023-04-19T00:51:50.898Z,13.03
2023-04-19T00:54:19.208Z,13.39
2023-04-19T00:56:46.674Z,13.44
2023-04-19T01:07:56.406Z,13.17
2023-04-19T01:10:25.682Z,12.86
2023-04-19T01:12:52.213Z,13.10
2023-04-19T01:15:18.974Z,13.27
2023-04-19T01:17:46.133Z,13.45
2023-04-19T01:20:13.555Z,12.99
2023-04-19T01:22:40.357Z,13.08
2023-04-19T01:25:07.752Z,13.34
2023-04-19T01:27:34.414Z,13.42
2023-04-19T01:30:00.992Z,13.43
2023-04-19T01:32:27.642Z,13.40
2023-04-19T01:34:54.258Z,13.56
2023-04-19T01:37:20.837Z,13.41
2023-04-19T01:39:47.540Z,13.27
2023-04-19T01:42:14.722Z,13.40
2023-04-19T01:44:41.453Z,13.48
2023-04-19T01:47:08.067Z,13.37
2023-04-19T01:49:34.665Z,13.37
2023-04-19T01:52:01.235Z,13.26
2023-04-19T01:54:27.811Z,13.14
2023-04-19T01:56:54.367Z,13.06
2023-04-19T01:59:20.907Z,13.28
2023-04-19T02:01:47.706Z,13.13
2023-04-19T02:04:14.530Z,13.19
2023-04-19T02:06:41.424Z,13.25
2023-04-19T02:09:08.556Z,13.15
2023-04-19T02:11:35.235Z,13.12
2023-04-19T02:14:01.907Z,12.63
2023-04-19T02:16:29.201Z,12.94
2023-04-19T02:18:55.780Z,12.90
2023-04-19T02:21:22.421Z,13.11
2023-04-19T02:23:48.939Z,12.91
2023-04-19T02:26:15.931Z,12.90
2023-04-19T02:28:43.901Z,12.96
2023-04-19T02:31:10.609Z,12.98
2023-04-19T02:33:37.389Z,12.89
2023-04-19T02:36:04.326Z,12.75
2023-04-19T02:38:30.930Z,12.74
2023-04-19T02:40:57.486Z,12.83
2023-04-19T02:43:24.244Z,12.76
2023-04-19T02:45:51.321Z,12.61
2023-04-19T02:48:17.858Z,12.53
2023-04-19T02:50:48.501Z,12.63
2023-04-19T02:53:15.137Z,12.46
2023-04-19T02:55:44.093Z,12.40
2023-04-19T02:58:11.177Z,12.35
2023-04-19T03:00:37.787Z,12.41
2023-04-19T03:03:05.284Z,12.24
2023-04-19T03:05:32.282Z,12.28
2023-04-19T03:07:59.155Z,12.43
2023-04-19T03:10:26.386Z,12.49
2023-04-19T03:12:53.181Z,12.50
2023-04-19T03:15:20.862Z,12.46
2023-04-19T03:17:48.557Z,12.28
2023-04-19T03:20:17.100Z,12.50
2023-04-19T03:22:43.787Z,12.51
2023-04-19T03:25:15.049Z,12.72
2023-04-19T03:27:41.851Z,12.93
2023-04-19T03:30:09.000Z,12.80
2023-04-19T03:32:35.547Z,12.80
2023-04-19T03:35:02.460Z,12.59
2023-04-19T03:37:28.974Z,12.72
2023-04-19T03:39:55.731Z,12.86
2023-04-19T03:42:22.461Z,12.53
2023-04-19T03:44:49.537Z,12.74
2023-04-19T03:47:16.153Z,12.50
2023-04-19T03:49:42.650Z,12.88
2023-04-19T03:52:09.315Z,12.94
2023-04-19T03:54:35.851Z,12.81
2023-04-19T03:57:02.513Z,13.02
2023-04-19T03:59:29.086Z,12.70
2023-04-19T04:01:56.058Z,12.60
2023-04-19T04:04:23.154Z,12.88
2023-04-19T04:06:51.915Z,12.75
2023-04-19T04:09:18.461Z,12.77
2023-04-19T04:11:45.105Z,12.74
2023-04-19T04:14:12.097Z,13.01
2023-04-19T04:16:39.045Z,12.72
2023-04-19T04:19:05.856Z,12.92
2023-04-19T04:21:32.548Z,12.71
2023-04-19T04:24:01.979Z,12.55
2023-04-19T04:26:30.737Z,12.84
2023-04-19T04:28:57.486Z,13.11
2023-04-19T04:31:24.224Z,12.83
2023-04-19T04:33:51.162Z,12.83
2023-04-19T04:36:17.987Z,12.71
2023-04-19T04:38:44.802Z,12.74
2023-04-19T04:41:12.064Z,12.71
2023-04-19T04:43:41.288Z,13.00
2023-04-19T04:46:08.007Z,12.50
2023-04-19T04:48:34.926Z,12.78
2023-04-19T04:51:01.678Z,12.86
2023-04-19T04:53:28.348Z,12.67
2023-04-19T04:55:55.001Z,12.74
2023-04-19T04:58:21.759Z,12.58
2023-04-19T05:00:49.128Z,12.18
2023-04-19T05:03:16.958Z,12.83
2023-04-19T05:05:45.071Z,12.92
2023-04-19T05:08:12.814Z,12.88
2023-04-19T05:10:39.582Z,12.73
2023-04-19T05:13:06.180Z,13.06
2023-04-19T05:15:32.752Z,12.96
2023-04-19T05:17:59.314Z,13.06
2023-04-19T05:20:28.776Z,12.82
2023-04-19T05:23:00.662Z,13.05
2023-04-19T05:25:27.515Z,13.11
2023-04-19T05:27:54.166Z,12.78
2023-04-19T05:30:20.874Z,12.64
2023-04-19T05:32:47.744Z,12.75
2023-04-19T05:35:14.344Z,12.92
2023-04-19T05:37:41.745Z,12.85
2023-04-19T05:40:11.995Z,12.67
2023-04-19T05:42:38.968Z,12.90
2023-04-19T05:45:07.263Z,13.21
2023-04-19T05:47:33.883Z,13.35
2023-04-19T05:50:00.492Z,13.10
2023-04-19T05:52:27.039Z,13.36
2023-04-19T05:54:53.853Z,13.29
2023-04-19T05:57:20.482Z,13.29
2023-04-19T05:59:47.553Z,12.73
2023-04-19T06:02:14.556Z,13.24
2023-04-19T06:04:41.634Z,13.75
2023-04-19T06:07:17.812Z,13.52
2023-04-19T06:09:55.227Z,13.37
2023-04-19T06:12:21.976Z,13.96
2023-04-19T06:14:48.588Z,13.56
2023-04-19T06:17:17.021Z,13.81
2023-04-19T06:19:43.616Z,13.10
2023-04-19T06:22:10.215Z,13.40
2023-04-19T06:24:36.952Z,13.65
2023-04-19T06:27:03.830Z,13.85
2023-04-19T06:29:30.680Z,13.24
2023-04-19T06:31:57.710Z,13.07
2023-04-19T06:34:24.841Z,13.43
2023-04-19T06:36:51.447Z,13.28
2023-04-19T06:39:18.043Z,13.31
2023-04-19T06:41:45.385Z,13.56
2023-04-19T06:44:13.344Z,13.41
2023-04-19T06:46:40.352Z,13.36
2023-04-19T06:49:06.950Z,13.39
2023-04-19T06:51:33.974Z,13.35
2023-04-19T06:54:00.521Z,13.52
2023-04-19T06:56:45.856Z,13.29
2023-04-19T06:59:14.263Z,13.42
2023-04-19T07:01:41.318Z,13.58
2023-04-19T07:04:08.871Z,13.85
2023-04-19T07:06:37.781Z,13.52
2023-04-19T07:09:06.160Z,13.24
2023-04-19T07:11:33.404Z,13.36
2023-04-19T07:14:03.473Z,13.53
2023-04-19T07:16:30.202Z,13.11
2023-04-19T07:18:57.604Z,13.69
2023-04-19T07:21:30.710Z,13.60
2023-04-19T07:23:59.102Z,14.18
2023-04-19T07:26:26.045Z,13.97
2023-04-19T07:28:52.582Z,14.41
2023-04-19T07:31:19.327Z,14.00
2023-04-19T07:33:45.934Z,14.36
2023-04-19T07:36:12.795Z,14.26
2023-04-19T07:38:39.766Z,14.08
2023-04-19T07:41:07.948Z,13.72
2023-04-19T07:43:35.414Z,13.68
2023-04-19T07:46:03.065Z,14.21
2023-04-19T07:48:29.902Z,13.60
2023-04-19T07:50:56.711Z,13.97
2023-04-19T07:53:23.250Z,14.17
2023-04-19T07:55:50.217Z,14.51
2023-04-19T07:58:16.839Z,14.68
2023-04-19T08:00:43.688Z,15.28
2023-04-19T08:03:10.686Z,15.50
2023-04-19T08:05:37.544Z,15.68
2023-04-19T08:08:04.349Z,15.85
2023-04-19T08:10:31.311Z,15.75
2023-04-19T08:13:05.779Z,16.70
2023-04-19T08:18:06.701Z,16.41
2023-04-19T08:20:33.805Z,16.59
2023-04-19T08:23:10.526Z,17.14
2023-04-19T08:25:45.310Z,18.69
2023-04-19T08:28:12.554Z,17.93
2023-04-19T08:30:40.705Z,18.03
2023-04-19T08:33:08.292Z,18.39
2023-04-19T08:35:36.142Z,18.07
2023-04-19T08:38:04.559Z,18.98
2023-04-19T08:40:31.639Z,18.94
2023-04-19T08:42:58.787Z,20.12
2023-04-19T08:45:29.111Z,20.58
2023-04-19T08:48:01.186Z,20.19
2023-04-19T08:50:35.320Z,20.87
2023-04-19T08:53:20.822Z,21.93
2023-04-19T08:56:10.758Z,20.38
2023-04-19T08:58:57.857Z,21.12
2023-04-19T09:01:35.502Z,21.04
2023-04-19T09:04:25.997Z,20.33
2023-04-19T09:06:53.103Z,19.53
2023-04-19T09:11:52.402Z,21.13
2023-04-19T09:14:21.075Z,22.71
2023-04-19T09:16:48.664Z,22.33
2023-04-19T09:19:24.088Z,22.73
2023-04-19T09:21:54.743Z,22.93
2023-04-19T09:25:30.019Z,21.96
2023-04-19T09:27:40.798Z,22.22
2023-04-19T09:30:12.670Z,22.22
2023-04-19T09:32:49.262Z,20.29
2023-04-19T09:35:18.476Z,20.63
2023-04-19T09:40:30.739Z,23.21
2023-04-19T09:43:08.914Z,23.95
2023-04-19T09:45:46.328Z,23.92
2023-04-19T09:48:13.673Z,23.41
2023-04-19T09:50:59.830Z,23.64
2023-04-19T09:53:34.073Z,21.97
2023-04-19T09:56:03.011Z,21.72
2023-04-19T09:58:46.245Z,21.22
2023-04-19T10:01:20.056Z,21.29
2023-04-19T10:03:49.948Z,21.40
2023-04-19T10:08:50.471Z,20.66
2023-04-19T10:11:18.788Z,21.43
2023-04-19T10:13:47.244Z,21.29
2023-04-19T10:16:19.648Z,22.46
2023-04-19T10:18:50.701Z,21.04
2023-04-19T10:21:19.252Z,19.74
2023-04-19T10:23:46.445Z,22.03
2023-04-19T10:26:13.052Z,22.27
2023-04-19T10:28:44.032Z,22.05
2023-04-19T10:31:14.237Z,22.62
2023-04-19T10:33:42.341Z,23.41
2023-04-19T10:36:10.332Z,21.06
2023-04-19T10:38:55.565Z,21.94
2023-04-19T10:41:22.949Z,22.30
2023-04-19T10:43:55.642Z,23.88
2023-04-19T10:46:22.273Z,22.77
2023-04-19T10:48:57.314Z,21.78
2023-04-19T10:51:27.915Z,21.73
2023-04-19T10:54:06.220Z,22.02
2023-04-19T10:56:32.804Z,22.00
2023-04-19T10:59:02.825Z,22.62
2023-04-19T11:01:46.715Z,23.84
2023-04-19T11:04:19.049Z,24.70
2023-04-19T11:06:52.474Z,22.58
2023-04-19T11:09:34.705Z,22.96
2023-04-19T11:12:02.324Z,21.12
2023-04-19T11:14:34.612Z,22.83
2023-04-19T11:17:04.620Z,22.28
2023-04-19T11:19:31.763Z,24.03
2023-04-19T11:21:59.932Z,22.93
2023-04-19T11:24:26.801Z,22.48
2023-04-19T11:26:57.867Z,23.19
2023-04-19T11:29:24.618Z,22.68
2023-04-19T11:31:51.786Z,22.76
2023-04-19T11:34:22.784Z,21.92
2023-04-19T11:36:51.196Z,21.02
2023-04-19T11:39:18.844Z,22.42
2023-04-19T11:41:47.220Z,21.77
2023-04-19T11:44:20.485Z,22.94
2023-04-19T11:47:02.542Z,23.63
2023-04-19T11:49:34.339Z,22.08
2023-04-19T11:52:05.262Z,23.41
2023-04-19T11:54:33.136Z,22.31
2023-04-19T11:57:05.092Z,22.50
2023-04-19T11:59:42.454Z,20.53
2023-04-19T12:02:11.819Z,21.70
2023-04-19T12:04:39.538Z,20.64
2023-04-19T12:07:07.495Z,21.56
2023-04-19T12:09:38.905Z,21.32
2023-04-19T12:12:07.573Z,20.53
2023-04-19T12:14:35.639Z,20.68
2023-04-19T12:17:13.791Z,20.31
2023-04-19T12:19:48.335Z,19.49
2023-04-19T12:22:18.696Z,19.21
2023-04-19T12:24:46.622Z,19.32
2023-04-19T12:27:18.299Z,18.83
2023-04-19T12:29:47.706Z,19.19
2023-04-19T12:32:16.074Z,19.51
2023-04-19T12:34:43.176Z,19.65
2023-04-19T12:37:10.600Z,18.75
2023-04-19T12:39:39.129Z,19.70
2023-04-19T12:42:06.360Z,20.04
2023-04-19T12:44:36.680Z,19.97
2023-04-19T12:47:03.930Z,20.18
2023-04-19T12:49:31.310Z,19.50
2023-04-19T12:51:58.563Z,19.00
2023-04-19T12:54:25.766Z,19.49
2023-04-19T12:56:53.547Z,20.35
2023-04-19T12:59:22.699Z,20.96
2023-04-19T13:01:50.210Z,21.26
2023-04-19T13:04:17.520Z,21.03
2023-04-19T13:06:45.077Z,19.80
2023-04-19T13:09:14.976Z,20.33
2023-04-19T13:11:42.216Z,20.91
2023-04-19T13:14:10.516Z,20.37
2023-04-19T13:16:37.464Z,20.77
2023-04-19T13:19:04.463Z,20.40
2023-04-19T13:21:31.587Z,20.56
2023-04-19T13:23:59.591Z,21.17
2023-04-19T13:26:26.658Z,21.57
2023-04-19T13:28:53.763Z,20.87
2023-04-19T13:31:21.892Z,20.09
2023-04-19T13:33:49.382Z,19.56
2023-04-19T13:36:16.669Z,20.36
2023-04-19T13:38:44.102Z,20.96
2023-04-19T13:41:11.221Z,23.45
2023-04-19T13:43:38.538Z,23.73
2023-04-19T13:46:06.287Z,24.94
2023-04-19T13:48:33.606Z,26.71
2023-04-19T13:51:00.800Z,24.78
2023-04-19T13:53:30.352Z,24.98
2023-04-19T13:55:57.426Z,23.93
2023-04-19T13:58:27.319Z,23.35
2023-04-19T14:00:55.003Z,19.29
2023-04-19T14:03:23.585Z,19.02
2023-04-19T14:05:50.972Z,18.20
2023-04-19T14:08:18.848Z,18.05
2023-04-19T14:10:45.991Z,17.87
2023-04-19T14:13:14.042Z,17.71
2023-04-19T14:15:42.459Z,17.61
2023-04-19T14:18:09.638Z,17.37
2023-04-19T14:20:36.980Z,17.87
2023-04-19T14:23:04.182Z,18.04
2023-04-19T14:25:31.119Z,17.98
2023-04-19T14:27:59.156Z,18.03
2023-04-19T14:30:26.843Z,17.83
2023-04-19T14:32:55.113Z,17.92
2023-04-19T14:35:22.166Z,17.92
2023-04-19T14:37:49.708Z,18.09
2023-04-19T14:40:18.346Z,18.05
2023-04-19T14:42:46.715Z,18.02
2023-04-19T14:45:13.866Z,17.42
2023-04-19T14:47:41.383Z,16.97
2023-04-19T14:50:10.652Z,16.47
2023-04-19T14:52:38.297Z,16.32
2023-04-19T14:55:05.394Z,16.32
2023-04-19T14:57:33.246Z,16.65
2023-04-19T15:00:01.359Z,17.08
2023-04-19T15:02:30.010Z,16.96
2023-04-19T15:04:57.488Z,17.07
2023-04-19T15:07:24.714Z,16.93
2023-04-19T15:09:51.944Z,16.58
2023-04-19T15:12:18.817Z,17.09
2023-04-19T15:14:45.900Z,17.33
2023-04-19T15:17:14.225Z,17.51
2023-04-19T15:19:42.311Z,17.59
2023-04-19T15:22:09.379Z,16.98
2023-04-19T15:24:36.323Z,17.13
2023-04-19T15:27:04.118Z,16.71
2023-04-19T15:29:31.370Z,17.01
2023-04-19T15:31:58.259Z,17.45
2023-04-19T15:34:25.742Z,17.55
2023-04-19T15:36:52.906Z,17.49
2023-04-19T15:39:22.075Z,17.57
2023-04-19T15:41:49.566Z,17.84
2023-04-19T15:44:16.780Z,17.07
2023-04-19T15:46:43.590Z,16.87
2023-04-19T15:49:10.330Z,16.84
2023-04-19T15:51:40.523Z,16.70
2023-04-19T15:54:10.123Z,15.85
2023-04-19T15:56:37.080Z,15.80
2023-04-19T15:59:04.043Z,15.88
2023-04-19T16:01:30.720Z,15.71
2023-04-19T16:03:57.783Z,15.63
2023-04-19T16:06:24.532Z,16.07
2023-04-19T16:08:51.573Z,16.16
2023-04-19T16:11:18.830Z,16.03
2023-04-19T16:13:45.632Z,15.90
2023-04-19T16:16:12.349Z,16.29
2023-04-19T16:18:39.294Z,16.13
2023-04-19T16:21:06.279Z,16.45
2023-04-19T16:23:33.235Z,16.21
2023-04-19T16:26:00.114Z,16.47
2023-04-19T16:28:26.898Z,15.95
2023-04-19T16:30:53.824Z,15.77
2023-04-19T16:33:20.831Z,15.56
2023-04-19T16:35:49.793Z,15.54
2023-04-19T16:38:17.011Z,15.43
2023-04-19T16:40:48.392Z,15.71
2023-04-19T16:43:15.407Z,15.42
2023-04-19T16:45:42.950Z,15.46
2023-04-19T16:48:10.554Z,15.29
2023-04-19T16:50:37.507Z,15.47
2023-04-19T16:53:05.042Z,15.59
2023-04-19T16:55:34.882Z,15.32
2023-04-19T16:58:01.579Z,15.26
2023-04-19T17:00:28.528Z,15.39
2023-04-19T17:02:55.926Z,15.29
2023-04-19T17:05:23.028Z,15.42
2023-04-19T17:07:51.108Z,15.41
2023-04-19T17:10:19.498Z,15.27
2023-04-19T17:12:46.460Z,15.07
2023-04-19T17:15:13.313Z,14.86
2023-04-19T17:17:41.261Z,15.01
2023-04-19T17:20:09.833Z,15.12
2023-04-19T17:22:36.565Z,14.78
2023-04-19T17:25:05.043Z,14.88
2023-04-19T17:27:32.879Z,14.83
2023-04-19T17:29:59.813Z,15.05
2023-04-19T17:32:26.714Z,14.66
2023-04-19T17:34:55.266Z,14.46
2023-04-19T17:37:22.721Z,14.37
2023-04-19T17:39:49.583Z,14.43
2023-04-19T17:42:16.242Z,14.40
2023-04-19T17:44:43.806Z,14.37
2023-04-19T17:47:10.538Z,14.25
2023-04-19T17:49:37.811Z,14.24
2023-04-19T17:52:06.722Z,14.05
2023-04-19T17:54:33.822Z,14.09
2023-04-19T17:57:02.778Z,14.12
2023-04-19T17:59:29.780Z,13.77
2023-04-19T18:01:59.444Z,13.65
2023-04-19T18:04:26.694Z,13.99
2023-04-19T18:06:54.495Z,14.05
2023-04-19T18:09:23.370Z,13.85
2023-04-19T18:11:51.324Z,13.95
2023-04-19T18:14:17.975Z,13.86
2023-04-19T18:16:46.300Z,13.91
2023-04-19T18:19:13.524Z,13.83
2023-04-19T18:21:41.315Z,13.77
2023-04-19T18:24:08.444Z,13.59
2023-04-19T18:26:44.638Z,13.70
2023-04-19T18:29:12.924Z,13.38
2023-04-19T18:31:39.986Z,13.57
2023-04-19T18:34:06.883Z,13.50
2023-04-19T18:36:33.832Z,13.48
2023-04-19T18:39:00.797Z,13.47
2023-04-19T18:41:27.476Z,13.54
2023-04-19T18:44:24.733Z,13.40
2023-04-19T18:46:43.028Z,13.41
2023-04-19T18:49:10.541Z,13.30
2023-04-19T18:51:50.721Z,13.14
2023-04-19T18:54:19.618Z,12.99
2023-04-19T18:59:19.381Z,12.86
2023-04-19T19:01:46.239Z,12.91
2023-04-19T19:04:42.728Z,12.71
2023-04-19T19:07:18.311Z,12.59
2023-04-19T19:09:56.491Z,12.64
2023-04-19T19:12:23.747Z,12.63
2023-04-19T19:14:50.420Z,12.54
2023-04-19T19:17:16.924Z,12.55
2023-04-19T19:19:43.608Z,12.37
2023-04-19T19:22:25.013Z,12.58
2023-04-19T19:24:54.615Z,12.54
2023-04-19T19:27:21.349Z,12.38
2023-04-19T19:29:47.961Z,12.50
2023-04-19T19:32:28.166Z,12.30
2023-04-19T19:35:02.409Z,12.23
2023-04-19T19:37:33.098Z,12.27
2023-04-19T19:40:04.567Z,12.16
2023-04-19T19:42:32.717Z,12.29
2023-04-19T19:44:59.462Z,12.01
2023-04-19T19:47:31.569Z,12.18
2023-04-19T19:52:28.462Z,12.04
2023-04-19T19:54:55.141Z,12.09
2023-04-19T19:58:14.136Z,12.11
2023-04-19T20:02:54.164Z,12.27
2023-04-19T20:05:22.917Z,12.23
2023-04-19T20:10:19.946Z,12.28
2023-04-19T20:12:47.027Z,12.44
2023-04-19T20:15:14.117Z,12.41
2023-04-19T20:17:41.540Z,12.30
2023-04-19T20:20:11.107Z,12.24
2023-04-19T20:22:38.404Z,12.40
2023-04-19T20:25:05.565Z,12.19
2023-04-19T20:27:33.268Z,12.39
2023-04-19T20:30:00.846Z,12.31
2023-04-19T20:32:27.582Z,12.37
2023-04-19T20:34:54.833Z,12.20
2023-04-19T20:37:23.363Z,12.05
2023-04-19T20:39:50.567Z,12.04
2023-04-19T20:42:17.281Z,12.16
2023-04-19T20:44:44.445Z,11.86
2023-04-19T20:47:13.012Z,11.68
2023-04-19T20:49:39.853Z,11.73
2023-04-19T20:52:07.523Z,11.69
2023-04-19T20:54:36.518Z,11.70
2023-04-19T20:57:05.234Z,11.60
2023-04-19T20:59:32.083Z,11.54
2023-04-19T21:02:00.130Z,11.34
2023-04-19T21:04:26.934Z,11.27
2023-04-19T21:06:53.901Z,11.33
2023-04-19T21:09:21.054Z,11.28
2023-04-19T21:11:47.695Z,11.19
2023-04-19T21:14:14.464Z,11.09
2023-04-19T21:16:41.180Z,11.01
2023-04-19T21:19:07.915Z,11.03
2023-04-19T21:21:35.532Z,10.85
2023-04-19T21:24:02.094Z,10.91
2023-04-19T21:26:28.658Z,10.93
2023-04-19T21:28:55.605Z,10.92
2023-04-19T21:31:22.248Z,10.71
2023-04-19T21:33:49.210Z,10.72
2023-04-19T21:36:16.361Z,10.64
2023-04-19T21:38:43.518Z,10.43
2023-04-19T21:41:12.060Z,10.39
2023-04-19T21:43:38.871Z,10.28
2023-04-19T21:46:07.350Z,10.33
2023-04-19T21:48:35.573Z,10.29
2023-04-19T21:51:02.187Z,10.28
2023-04-19T21:53:31.273Z,10.17
2023-04-19T21:55:58.617Z,10.26
2023-04-19T21:58:26.230Z,10.20
2023-04-19T22:00:53.669Z,10.20
2023-04-19T22:03:21.912Z,10.14
2023-04-19T22:05:49.403Z,10.07
2023-04-19T22:08:18.128Z,10.15
2023-04-19T22:10:48.117Z,10.07
2023-04-19T22:13:18.544Z,10.14
2023-04-19T22:15:46.457Z,9.92
2023-04-19T22:18:15.721Z,10.01
2023-04-19T22:20:42.888Z,10.03
2023-04-19T22:23:09.868Z,10.03
2023-04-19T22:25:42.621Z,10.01
2023-04-19T22:28:11.929Z,9.80
2023-04-19T22:30:38.547Z,9.89
2023-04-19T22:33:05.445Z,9.77
2023-04-19T22:35:32.326Z,9.78
2023-04-19T22:37:59.134Z,9.79
2023-04-19T22:40:25.815Z,9.85
2023-04-19T22:42:52.648Z,9.75
2023-04-19T22:45:20.394Z,9.79
2023-04-19T22:47:47.306Z,9.74
2023-04-19T22:50:14.050Z,9.69
2023-04-19T22:52:41.449Z,9.67
2023-04-19T22:55:08.845Z,9.66
2023-04-19T22:57:35.554Z,9.59
2023-04-19T23:00:03.608Z,9.66
2023-04-19T23:02:30.483Z,9.68
2023-04-19T23:04:58.781Z,9.56
2023-04-19T23:07:26.126Z,9.66
2023-04-19T23:09:56.303Z,9.55
2023-04-19T23:12:23.986Z,9.45
2023-04-19T23:14:51.786Z,9.39
2023-04-19T23:17:18.793Z,9.26
2023-04-19T23:19:45.548Z,9.33
2023-04-19T23:22:12.099Z,9.35
2023-04-19T23:24:38.718Z,9.36
2023-04-19T23:27:05.313Z,9.35
2023-04-19T23:29:31.961Z,9.42
2023-04-19T23:32:01.521Z,9.32
2023-04-19T23:34:28.230Z,9.31
2023-04-19T23:36:54.994Z,9.35
2023-04-19T23:39:21.549Z,8.90
2023-04-19T23:41:48.169Z,9.05
2023-04-19T23:44:15.133Z,8.87
2023-04-19T23:46:42.035Z,8.89
2023-04-19T23:49:09.002Z,8.84
2023-04-19T23:51:36.448Z,8.72
2023-04-19T23:54:03.062Z,8.82
2023-04-19T23:56:30.119Z,9.11
2023-04-19T23:58:57.442Z,9.07
